NWWT weather

Oua Tom Airport
La Foa, New Caledonia

Public forecast

Using degrees Celsius for public forecast. Weather courtesy of forecast.io.

METAR (pilot weather report)

Closest report is La Tontouta International Airport, 22.8 nm (42.3 km) ESE. Retrieved 2018/02/23 08:30 UTC (7 minutes ago):

NWWW 230830Z AUTO 13008KT 9999 SCT036 26/24 Q1012 NOSIG

TAF (pilot weather forecast)

Closest forecast is La Tontouta International Airport, 22.8 nm (42.3 km) ESE. Retrieved 2018/02/23 06:00 UTC (3 hours ago):

TAF NWWW 230500Z 2306/2406 13012KT 9999 SCT045 TEMPO 2306/2309 TS SCT020CB BECMG 2309/2311 VRB02KT BECMG 2323/2401 15015KT PROB40 TEMPO 2401/2406 TS SCT020CB